• vieta
  • image
  • image
  • image
mod_vvisit_countermod_vvisit_countermod_vvisit_countermod_vvisit_countermod_vvisit_countermod_vvisit_counter
mod_vvisit_counterŠiandien788
mod_vvisit_counterVakar534
mod_vvisit_counterŠią savaitę1322
mod_vvisit_counterPraėjusią savaitę5522
mod_vvisit_counterŠį mėnesį11807
mod_vvisit_counterPraėjusį mėnesį23031
mod_vvisit_counterViso997764

Mes turime: 46 svečius, 1 bots online
Jūsų IP: 54.92.163.105
 , 
Šiandien: Spa 16, 2018
Oro uostas / Paslaugos

Paslaugų sąrašas

Tarptautinis Šiaulių oro uostas klientams teikia šias paslaugas:

Orlaivių palyda.

Antžeminis orlaivių aptarnavimas.

Orlaivių pakrovimas / iškrovimas.

Orlaivių parkavimas.

Orlaivių apsauga.

Orlaivių aprūpinimas kuru.

Keleivių bagažo aptarnavimas.

Verslo klasės keleivių aptarnavimas.

Informacijos keleiviams pateikimas.

Maitinimo tiekimas keleiviams ir įgulai.

Papildomos paslaugos orlaivių įgulos nariams.

Aviacijos saugumas.

Maitinimas kavinėje.

Pirmoji medicininė pagalba.

Viešbučių rezervavimas.

Įgulos išvežimas / parvežimas iš miesto.

Taksi iškvietimo paslaugos.

Pasienio procedūros.

Muitinės procedūros.

 

Šiandien

Antradienis, 16 Spalis 2018

Orų prognozė aviacijai

[source: ADDS]
METAR
EYSA 162020Z 21007KT CAVOK 11/06 Q1023 BLU NOSIG =
TAF EYSA 162000Z 1621/1706 VRB04KT CAVOK
TAF
TAF EYSA 162000Z 1621/1706 VRB04KT CAVOK =
SR / SS: 05:00 / 15:26 UTC (EYSA 2018-10-16)

Paieška

Lankytojai

Mes turime 46 svečius online

tic logo lt